Time;durP1;ratioP1;P1;durP2;ratioP2;P2;SDS_P1;SDS_P2;PMS_P1;PMS_P2;Temp;Humidity;BMP_temperature;BMP_pressure;BME280_temperature;BME280_humidity;BME280_pressure;Samples;Min_cycle;Max_cycle;Signal;HPM_P1;HPM_P2
2022/03/22 00:02:03;;;;;;;99.27;91.80;;;;;;;9.18;100.00;102846.77;2005841;71;32893;-78
2022/03/22 00:07:48;;;;;;;101.33;93.40;;;;;;;9.25;100.00;102838.69;2014638;71;32836;-76
2022/03/22 00:13:33;;;;;;;100.23;92.63;;;;;;;9.19;100.00;102842.39;1997273;71;32758;-72
2022/03/22 00:19:17;;;;;;;102.40;94.57;;;;;;;9.27;100.00;102835.70;2004154;71;32881;-79
2022/03/22 00:25:02;;;;;;;97.73;90.13;;;;;;;9.29;100.00;102839.93;2014735;71;32839;-77
2022/03/22 00:30:49;;;;;;;98.93;90.97;;;;;;;9.30;100.00;102838.86;2009188;71;32947;-70
2022/03/22 00:36:34;;;;;;;99.00;91.20;;;;;;;9.35;100.00;102832.63;2011229;71;33323;-70
2022/03/22 00:42:18;;;;;;;101.27;92.97;;;;;;;9.35;100.00;102834.88;2000878;71;32772;-77
2022/03/22 00:48:05;;;;;;;102.67;94.20;;;;;;;9.39;100.00;102840.80;2006206;71;32841;-78
2022/03/22 00:53:51;;;;;;;100.63;92.33;;;;;;;9.48;100.00;102843.59;1998861;71;32842;-71
2022/03/22 01:05:38;;;;;;;100.83;92.73;;;;;;;9.58;100.00;102833.64;1969701;72;33367;-71
2022/03/22 01:11:24;;;;;;;104.87;96.20;;;;;;;9.58;100.00;102838.38;2013343;70;32760;-72
2022/03/22 01:17:08;;;;;;;105.30;96.43;;;;;;;9.72;100.00;102823.24;2011722;71;33263;-72
2022/03/22 01:22:53;;;;;;;101.53;92.73;;;;;;;9.68;100.00;102816.46;2004035;71;33309;-77
2022/03/22 01:28:38;;;;;;;101.80;93.10;;;;;;;9.68;100.00;102810.91;2018345;71;33277;-72
2022/03/22 01:34:23;;;;;;;102.07;93.57;;;;;;;9.67;100.00;102815.33;2009299;71;32933;-76
2022/03/22 01:40:11;;;;;;;103.27;94.73;;;;;;;9.77;100.00;102807.28;2000679;71;32763;-77
2022/03/22 01:45:55;;;;;;;106.53;97.53;;;;;;;9.84;100.00;102801.95;1996935;71;33435;-77
2022/03/22 01:51:41;;;;;;;107.93;99.17;;;;;;;9.90;100.00;102804.34;2006260;71;33316;-78
2022/03/22 01:57:30;;;;;;;109.70;100.90;;;;;;;9.82;100.00;102797.19;2002908;71;32834;-77
2022/03/22 02:09:25;;;;;;;112.03;102.63;;;;;;;9.36;100.00;102787.19;1994798;71;33537;-72
2022/03/22 02:15:11;;;;;;;107.90;98.43;;;;;;;9.28;100.00;102793.03;1998862;71;33203;-72
2022/03/22 02:20:56;;;;;;;109.13;99.30;;;;;;;9.07;100.00;102785.43;2007617;71;32809;-78
2022/03/22 02:26:50;;;;;;;106.53;96.87;;;;;;;9.19;100.00;102782.78;2002278;71;32767;-71
2022/03/22 02:32:34;;;;;;;106.97;97.40;;;;;;;8.93;100.00;102781.11;2005464;71;32881;-71
2022/03/22 02:38:20;;;;;;;112.23;102.20;;;;;;;8.78;100.00;102781.97;2016538;71;32830;-71
2022/03/22 02:44:05;;;;;;;115.33;104.53;;;;;;;8.63;100.00;102785.63;2011004;71;32897;-71
2022/03/22 02:49:50;;;;;;;114.03;103.20;;;;;;;8.57;100.00;102782.36;2007782;71;32874;-78
2022/03/22 02:55:34;;;;;;;109.47;99.13;;;;;;;8.40;100.00;102783.45;1994691;71;32846;-77
2022/03/22 03:01:19;;;;;;;112.27;102.00;;;;;;;8.41;100.00;102782.91;2000546;71;32764;-77
2022/03/22 03:07:03;;;;;;;111.57;101.17;;;;;;;8.27;100.00;102790.95;2014897;71;32825;-71
2022/03/22 03:12:47;;;;;;;115.43;105.03;;;;;;;8.49;100.00;102786.26;2006271;71;32832;-76
2022/03/22 03:18:32;;;;;;;114.07;103.27;;;;;;;8.60;100.00;102782.75;1995311;71;32869;-77
2022/03/22 03:24:16;;;;;;;116.23;105.17;;;;;;;8.76;100.00;102777.22;1995483;70;32941;-74
2022/03/22 03:30:00;;;;;;;110.10;99.23;;;;;;;8.83;100.00;102775.22;1991455;71;32767;-78
2022/03/22 03:35:47;;;;;;;115.13;104.13;;;;;;;8.95;100.00;102769.23;2011862;71;32810;-70
2022/03/22 03:47:40;;;;;;;116.50;105.60;;;;;;;9.12;100.00;102774.51;2023840;71;32990;-71
2022/03/22 03:53:25;;;;;;;117.53;106.13;;;;;;;9.09;100.00;102779.13;2018379;71;32812;-78
2022/03/22 03:59:09;;;;;;;123.23;111.53;;;;;;;9.30;100.00;102759.81;1995081;71;32818;-71
2022/03/22 04:04:53;;;;;;;126.03;113.67;;;;;;;9.47;100.00;102773.39;2000708;71;33284;-71
2022/03/22 04:10:39;;;;;;;126.93;114.63;;;;;;;9.92;100.00;102766.11;2004355;71;33345;-78
2022/03/22 04:16:23;;;;;;;128.63;116.67;;;;;;;9.69;100.00;102772.91;2002516;71;33348;-71
2022/03/22 04:22:08;;;;;;;131.60;119.43;;;;;;;9.72;100.00;102773.29;1997105;71;33173;-79
2022/03/22 04:33:56;;;;;;;137.33;123.70;;;;;;;9.90;100.00;102781.60;2014694;71;32820;-79
2022/03/22 04:39:42;;;;;;;129.70;116.77;;;;;;;9.92;100.00;102772.52;2008169;71;33209;-70
2022/03/22 04:45:27;;;;;;;130.47;117.77;;;;;;;9.92;100.00;102778.06;1999925;71;32833;-78
2022/03/22 04:57:13;;;;;;;130.33;117.77;;;;;;;9.71;100.00;102774.93;2016821;71;33345;-70
2022/03/22 05:02:58;;;;;;;132.30;118.90;;;;;;;9.83;100.00;102778.61;1915134;71;39846;-78
2022/03/22 05:08:41;;;;;;;131.10;117.90;;;;;;;9.71;100.00;102778.56;2015520;71;33303;-78
2022/03/22 05:14:25;;;;;;;130.77;117.50;;;;;;;9.71;100.00;102782.72;2018332;71;32888;-71
2022/03/22 05:20:12;;;;;;;128.53;115.27;;;;;;;9.74;100.00;102779.47;2013702;71;32999;-78
2022/03/22 05:25:56;;;;;;;131.37;117.63;;;;;;;9.77;100.00;102783.70;2013119;71;32944;-72
2022/03/22 05:31:40;;;;;;;132.10;118.27;;;;;;;9.85;100.00;102791.16;2018408;71;32881;-77
2022/03/22 05:37:24;;;;;;;130.07;116.20;;;;;;;9.78;100.00;102797.89;1995264;71;33325;-77
2022/03/22 05:43:11;;;;;;;134.47;120.00;;;;;;;9.88;100.00;102800.97;2009409;70;33302;-77
2022/03/22 05:48:56;;;;;;;128.67;114.90;;;;;;;9.71;100.00;102793.83;2002168;71;32814;-78
2022/03/22 05:54:41;;;;;;;136.27;121.67;;;;;;;9.69;100.00;102793.19;2013133;71;33334;-71
2022/03/22 06:00:28;;;;;;;136.50;121.77;;;;;;;9.90;100.00;102794.63;2003840;70;32881;-72
2022/03/22 06:06:12;;;;;;;139.00;124.07;;;;;;;9.90;100.00;102793.24;2014909;71;32938;-72
2022/03/22 06:11:59;;;;;;;132.27;118.63;;;;;;;9.80;100.00;102795.17;2000732;71;32863;-71
2022/03/22 06:17:44;;;;;;;134.20;119.97;;;;;;;9.70;100.00;102798.20;2002601;71;32749;-71
2022/03/22 06:23:28;;;;;;;136.83;122.33;;;;;;;9.69;100.00;102800.13;2005640;71;32880;-77
2022/03/22 06:29:13;;;;;;;136.60;122.30;;;;;;;9.81;100.00;102807.98;2018450;71;32813;-76
2022/03/22 06:34:57;;;;;;;135.37;120.97;;;;;;;9.75;100.00;102810.85;2011743;71;32848;-76
2022/03/22 06:40:42;;;;;;;135.70;120.80;;;;;;;9.86;100.00;102808.67;2006211;71;33367;-77
2022/03/22 06:46:27;;;;;;;136.77;122.07;;;;;;;9.85;100.00;102806.44;2013608;71;32876;-77
2022/03/22 06:52:12;;;;;;;138.27;122.67;;;;;;;9.73;100.00;102813.00;2004433;71;32763;-75
2022/03/22 06:57:57;;;;;;;144.40;128.87;;;;;;;9.68;100.00;102815.61;2011177;71;32823;-70
2022/03/22 07:03:42;;;;;;;142.87;128.40;;;;;;;9.75;100.00;102825.58;2014670;71;32843;-73
2022/03/22 07:09:26;;;;;;;139.17;125.10;;;;;;;9.71;100.00;102824.34;2016386;71;32831;-76
2022/03/22 07:15:11;;;;;;;142.33;127.50;;;;;;;9.80;100.00;102834.56;2018283;71;32879;-71
2022/03/22 07:20:55;;;;;;;142.97;127.30;;;;;;;9.91;100.00;102839.36;2000776;71;33252;-76
2022/03/22 07:26:40;;;;;;;143.93;128.30;;;;;;;10.30;100.00;102836.10;2004824;71;32807;-71
2022/03/22 07:32:26;;;;;;;137.30;122.57;;;;;;;10.67;100.00;102831.27;2000531;71;32757;-68
2022/03/22 07:38:10;;;;;;;138.60;123.97;;;;;;;11.00;100.00;102832.11;1995316;70;33311;-71
2022/03/22 07:43:55;;;;;;;141.00;126.90;;;;;;;11.13;100.00;102826.86;2007672;71;33327;-71
2022/03/22 07:55:43;;;;;;;134.43;120.97;;;;;;;11.65;100.00;102830.59;2013134;71;32959;-70
2022/03/22 08:01:30;;;;;;;131.73;118.40;;;;;;;11.76;100.00;102823.67;2000799;71;33226;-73
2022/03/22 08:07:15;;;;;;;126.57;113.73;;;;;;;11.93;100.00;102822.91;2016647;71;33302;-69
2022/03/22 08:12:59;;;;;;;130.23;117.73;;;;;;;12.15;100.00;102818.35;2014979;71;33440;-72
2022/03/22 08:18:44;;;;;;;129.63;116.97;;;;;;;12.22;100.00;102822.68;2000407;71;32836;-70
2022/03/22 08:24:29;;;;;;;128.37;116.33;;;;;;;12.62;100.00;102821.77;2018357;71;32822;-73
2022/03/22 08:30:17;;;;;;;122.27;110.70;;;;;;;12.69;100.00;102823.84;2009331;71;33318;-72
2022/03/22 08:36:00;;;;;;;120.07;108.93;;;;;;;12.89;100.00;102824.19;1995131;71;31426;-73
2022/03/22 08:41:44;;;;;;;116.70;105.83;;;;;;;13.21;100.00;102828.67;2013222;71;32862;-69
2022/03/22 08:47:29;;;;;;;116.63;105.83;;;;;;;13.28;100.00;102839.66;2011795;71;32752;-72
2022/03/22 08:53:16;;;;;;;112.40;102.00;;;;;;;13.51;100.00;102833.88;2015220;71;32834;-70
2022/03/22 08:59:00;;;;;;;107.20;97.60;;;;;;;13.89;100.00;102831.62;2016642;71;32831;-72
2022/03/22 09:10:50;;;;;;;111.30;101.80;;;;;;;14.16;100.00;102841.47;1997110;71;33240;-70
2022/03/22 09:16:36;;;;;;;102.57;94.10;;;;;;;14.32;100.00;102835.80;2005442;71;32897;-70
2022/03/22 09:22:20;;;;;;;102.17;93.63;;;;;;;14.75;100.00;102839.63;2003856;71;33320;-73
2022/03/22 09:28:07;;;;;;;88.93;81.20;;;;;;;14.81;100.00;102832.41;2009503;71;32839;-71
2022/03/22 09:33:53;;;;;;;89.93;82.63;;;;;;;15.01;100.00;102837.36;2016640;71;33302;-73
2022/03/22 09:39:37;;;;;;;82.27;75.03;;;;;;;15.32;100.00;102830.88;2016453;71;32819;-71
2022/03/22 09:45:27;;;;;;;77.50;70.60;;;;;;;15.25;100.00;102839.22;2009532;71;32932;-72
2022/03/22 09:57:14;;;;;;;72.53;66.10;;;;;;;15.34;100.00;102823.61;2003797;71;32976;-71
2022/03/22 10:02:59;;;;;;;76.00;68.90;;;;;;;15.61;100.00;102825.80;2018559;71;33334;-71
2022/03/22 10:08:52;;;;;;;72.57;66.27;;;;;;;15.59;100.00;102824.36;2012996;71;32833;-70
2022/03/22 10:14:40;;;;;;;67.23;61.13;;;;;;;15.88;100.00;102822.84;2007540;71;32830;-71
2022/03/22 10:20:27;;;;;;;64.03;58.53;;;;;;;15.90;100.00;102820.06;1940860;74;32954;-72
2022/03/22 10:26:12;;;;;;;60.67;55.30;;;;;;;16.11;100.00;102822.39;2013129;71;32851;-72
2022/03/22 10:32:07;;;;;;;62.73;57.23;;;;;;;16.17;100.00;102812.86;1998395;71;33331;-71
2022/03/22 10:37:54;;;;;;;58.13;53.33;;;;;;;16.49;100.00;102815.48;2002116;71;33451;-70
2022/03/22 10:43:43;;;;;;;51.77;47.23;;;;;;;16.57;100.00;102816.90;2014726;71;30993;-70
2022/03/22 10:49:28;;;;;;;48.33;44.03;;;;;;;16.59;100.00;102814.15;2000608;71;32820;-72
2022/03/22 10:55:18;;;;;;;45.37;41.47;;;;;;;16.66;100.00;102804.89;1993690;70;32888;-71
2022/03/22 11:01:02;;;;;;;51.10;46.93;;;;;;;16.65;100.00;102806.00;2013027;71;32836;-73
2022/03/22 11:06:48;;;;;;;40.87;37.57;;;;;;;16.86;100.00;102797.62;2000291;71;30896;-72
2022/03/22 11:12:34;;;;;;;29.03;26.83;;;;;;;17.11;100.00;102798.45;2003918;71;30964;-72
2022/03/22 11:18:22;;;;;;;19.13;17.73;;;;;;;17.67;100.00;102781.52;2000789;71;33279;-73
2022/03/22 11:24:09;;;;;;;17.57;16.27;;;;;;;17.73;100.00;102779.80;2011008;71;30924;-69
2022/03/22 11:29:58;;;;;;;17.17;16.07;;;;;;;17.79;100.00;102784.00;2016645;71;33447;-71
2022/03/22 11:35:51;;;;;;;18.17;16.77;;;;;;;17.69;100.00;102780.66;2018390;71;32923;-74
2022/03/22 11:47:59;;;;;;;16.60;15.40;;;;;;;18.01;100.00;102781.66;2009782;71;31518;-72
2022/03/22 11:53:45;;;;;;;17.27;15.87;;;;;;;18.11;100.00;102770.34;2011811;71;31341;-73
2022/03/22 11:59:29;;;;;;;16.93;15.73;;;;;;;18.34;100.00;102769.66;2000764;71;30896;-74
2022/03/22 12:05:18;;;;;;;19.30;17.83;;;;;;;18.44;100.00;102769.56;1958033;71;31117;-72
2022/03/22 12:11:04;;;;;;;19.77;18.20;;;;;;;18.49;100.00;102758.28;2016920;71;33338;-73
2022/03/22 12:16:58;;;;;;;17.77;16.43;;;;;;;18.80;100.00;102763.14;2009860;71;30855;-73
2022/03/22 12:22:46;;;;;;;19.30;17.80;;;;;;;18.55;100.00;102757.16;2008112;71;30996;-72
2022/03/22 12:28:31;;;;;;;19.17;17.77;;;;;;;18.52;100.00;102757.75;2016554;71;31042;-70
2022/03/22 12:34:15;;;;;;;17.77;16.50;;;;;;;18.49;100.00;102748.98;2016737;71;31014;-74
2022/03/22 12:40:00;;;;;;;17.50;16.40;;;;;;;18.77;100.00;102750.23;2006258;71;33306;-70
2022/03/22 12:45:47;;;;;;;16.27;15.17;;;;;;;18.78;100.00;102737.27;2003921;71;30978;-70
2022/03/22 12:51:32;;;;;;;15.27;14.07;;;;;;;19.31;100.00;102739.55;1995284;71;30917;-69
2022/03/22 12:57:19;;;;;;;15.53;14.43;;;;;;;18.95;100.00;102735.43;2011596;71;30836;-70
2022/03/22 13:03:08;;;;;;;15.70;14.60;;;;;;;18.88;100.00;102741.39;1995080;71;32892;-71
2022/03/22 13:15:05;;;;;;;18.90;17.60;;;;;;;19.23;100.00;102737.38;2009289;71;31033;-74
2022/03/22 13:20:52;;;;;;;18.10;16.57;;;;;;;18.41;100.00;102651.97;2005824;70;31008;-74
2022/03/22 13:26:38;;;;;;;19.17;17.77;;;;;;;18.95;100.00;102723.59;2003588;71;30938;-69
2022/03/22 13:32:33;;;;;;;16.87;15.50;;;;;;;19.11;100.00;102722.87;2010979;71;30931;-75
2022/03/22 13:38:19;;;;;;;18.57;17.17;;;;;;;19.05;100.00;102717.84;1995095;71;32873;-68
2022/03/22 13:44:04;;;;;;;20.70;19.00;;;;;;;18.85;100.00;102713.83;2007771;71;30881;-70
2022/03/22 13:49:48;;;;;;;16.97;15.67;;;;;;;19.24;100.00;102712.30;2015024;71;30980;-72
2022/03/22 13:55:39;;;;;;;15.97;14.77;;;;;;;19.02;100.00;102710.56;1996975;71;30922;-72
2022/03/22 14:01:26;;;;;;;16.87;15.57;;;;;;;19.12;100.00;102712.44;2003927;71;30920;-69
2022/03/22 14:07:11;;;;;;;19.03;17.57;;;;;;;19.46;100.00;102704.19;2014690;71;31256;-71
2022/03/22 14:12:56;;;;;;;17.17;16.07;;;;;;;19.20;100.00;102704.17;2005957;71;30943;-73
2022/03/22 14:18:41;;;;;;;18.57;17.27;;;;;;;19.22;100.00;102696.25;2018288;71;30974;-74
2022/03/22 14:24:27;;;;;;;16.87;15.73;;;;;;;18.95;100.00;102694.03;2002544;71;30897;-73
2022/03/22 14:30:15;;;;;;;17.20;16.00;;;;;;;19.02;100.00;102690.28;2013233;71;31093;-70
2022/03/22 14:35:59;;;;;;;17.60;16.30;;;;;;;19.31;100.00;102694.45;2000085;71;30961;-71
2022/03/22 14:41:48;;;;;;;15.83;14.73;;;;;;;19.31;100.00;102683.19;2002431;71;30848;-73
2022/03/22 14:47:34;;;;;;;16.93;15.73;;;;;;;19.49;100.00;102685.83;1997157;71;30994;-74
2022/03/22 14:59:22;;;;;;;17.17;16.03;;;;;;;19.22;100.00;102681.31;2009330;71;30956;-70
2022/03/22 15:05:31;;;;;;;16.63;15.53;;;;;;;19.52;100.00;102680.98;1963074;71;31106;-70
2022/03/22 15:10:59;;;;;;;17.70;16.43;;;;;;;19.40;100.00;102670.68;2002452;71;30849;-72
2022/03/22 15:16:43;;;;;;;18.30;17.00;;;;;;;18.94;100.00;102674.03;2014713;71;31045;-70
2022/03/22 15:22:27;;;;;;;16.03;14.93;;;;;;;19.26;100.00;102669.15;2011131;71;31386;-73
2022/03/22 15:28:12;;;;;;;16.43;15.23;;;;;;;19.19;100.00;102663.05;2013485;71;31016;-74
2022/03/22 15:33:56;;;;;;;16.20;15.00;;;;;;;19.14;100.00;102667.33;2014806;71;31493;-74
2022/03/22 15:39:43;;;;;;;17.23;16.13;;;;;;;19.01;100.00;102677.89;2016958;71;33442;-73
2022/03/22 15:45:28;;;;;;;17.40;16.03;;;;;;;18.98;100.00;102657.37;2016713;71;31442;-72
2022/03/22 15:51:14;;;;;;;16.77;15.40;;;;;;;19.23;100.00;102650.60;2007584;71;30942;-70
2022/03/22 15:56:58;;;;;;;16.90;15.80;;;;;;;19.10;100.00;102654.97;2007732;71;31414;-71
2022/03/22 16:02:44;;;;;;;15.83;14.93;;;;;;;19.22;100.00;102652.58;1991479;71;30913;-70
2022/03/22 16:08:29;;;;;;;16.80;15.60;;;;;;;19.02;100.00;102647.19;2000605;71;30905;-70
2022/03/22 16:14:14;;;;;;;17.30;16.00;;;;;;;19.17;100.00;102650.41;2002594;71;30998;-74
2022/03/22 16:19:58;;;;;;;16.83;15.67;;;;;;;18.78;100.00;102647.17;1996934;71;30849;-69
2022/03/22 16:25:44;;;;;;;17.40;15.93;;;;;;;19.03;100.00;102653.94;2009138;71;30907;-73
2022/03/22 16:31:28;;;;;;;17.43;15.93;;;;;;;18.85;100.00;102650.47;1995143;71;31028;-72
2022/03/22 16:37:12;;;;;;;17.57;16.30;;;;;;;19.00;100.00;102655.92;1997187;71;31382;-70
2022/03/22 16:42:57;;;;;;;16.57;15.57;;;;;;;18.60;100.00;102654.94;2015011;71;30959;-68
2022/03/22 16:48:41;;;;;;;17.77;16.47;;;;;;;18.60;100.00;102664.23;1999968;71;31087;-69
2022/03/22 16:54:25;;;;;;;16.70;15.40;;;;;;;18.41;96.18;102675.89;2000598;71;30916;-70
2022/03/22 17:00:13;;;;;;;16.77;15.67;;;;;;;18.22;97.32;102676.33;2000682;71;30954;-74
2022/03/22 17:05:58;;;;;;;17.73;16.33;;;;;;;18.41;97.36;102683.48;1998579;71;30904;-70
2022/03/22 17:11:43;;;;;;;17.67;16.67;;;;;;;18.64;100.00;102690.66;2002341;71;30890;-70
2022/03/22 17:17:28;;;;;;;17.03;15.80;;;;;;;18.56;100.00;102690.45;2012938;71;30892;-69
2022/03/22 17:23:12;;;;;;;15.30;14.23;;;;;;;18.25;99.13;102691.77;2016602;71;30961;-73
2022/03/22 17:28:58;;;;;;;16.67;15.07;;;;;;;18.01;99.36;102698.70;2013686;71;30948;-70
2022/03/22 17:34:43;;;;;;;15.77;14.77;;;;;;;18.12;100.00;102705.37;2014875;71;31088;-67
2022/03/22 17:43:34;;;;;;;16.07;14.97;;;;;;;17.70;97.93;102705.89;2052392;69;32607;-72
2022/03/22 17:46:04;;;;;;;15.67;14.67;;;;;;;17.72;100.00;102707.83;1931980;73;24157;-68
2022/03/22 17:48:34;;;;;;;15.47;14.47;;;;;;;17.49;98.43;102712.69;1945312;73;24245;-68
2022/03/22 17:51:05;;;;;;;14.97;13.73;;;;;;;17.83;100.00;102717.07;1966663;72;24226;-72
2022/03/22 17:53:36;;;;;;;15.30;14.30;;;;;;;17.93;100.00;102714.74;1929977;74;24646;-73
2022/03/22 17:56:07;;;;;;;16.40;15.30;;;;;;;17.59;100.00;102718.84;1930607;73;24627;-73
2022/03/22 17:58:37;;;;;;;16.40;15.10;;;;;;;17.32;100.00;102722.58;1937738;73;26651;-76
2022/03/22 18:01:09;;;;;;;16.87;15.43;;;;;;;17.57;100.00;102723.89;1969298;72;24167;-73
2022/03/22 18:03:39;;;;;;;17.30;16.00;;;;;;;17.16;96.88;102731.02;1856058;72;24744;-75
2022/03/22 18:06:10;;;;;;;17.07;15.80;;;;;;;16.95;100.00;102730.78;1859709;77;24133;-74
2022/03/22 18:08:40;;;;;;;16.53;15.43;;;;;;;16.85;95.55;102728.00;1859714;77;24241;-71
2022/03/22 18:13:59;;;;;;;16.80;15.50;;;;;;;16.71;97.43;102733.89;1859736;77;24666;-72
2022/03/22 18:16:29;;;;;;;16.60;15.50;;;;;;;16.60;98.85;102737.24;1859915;77;24153;-74
2022/03/22 18:18:59;;;;;;;16.87;15.77;;;;;;;16.31;100.00;102742.52;1859759;77;24152;-71
2022/03/22 18:21:30;;;;;;;16.00;15.00;;;;;;;15.92;100.00;102739.89;1859720;77;24176;-71
2022/03/22 18:24:01;;;;;;;17.37;15.87;;;;;;;15.86;100.00;102745.20;1859701;77;26208;-72
2022/03/22 18:26:32;;;;;;;17.17;15.50;;;;;;;15.86;100.00;102745.20;1859721;77;26212;-71
2022/03/22 18:29:03;;;;;;;16.50;15.40;;;;;;;15.95;100.00;102747.77;1859771;77;26255;-74
2022/03/22 18:31:34;;;;;;;16.90;15.60;;;;;;;15.68;100.00;102758.30;1859787;77;26393;-74
2022/03/22 18:34:07;;;;;;;16.50;15.20;;;;;;;15.56;100.00;102761.89;1859806;77;26322;-74
2022/03/22 18:36:39;;;;;;;16.40;15.23;;;;;;;15.56;100.00;102761.89;1859812;77;24160;-74
2022/03/22 18:39:12;;;;;;;16.97;15.87;;;;;;;15.38;100.00;102764.55;1859747;77;26215;-74
2022/03/22 18:41:44;;;;;;;15.33;14.33;;;;;;;15.31;100.00;102769.00;1859841;77;26750;-72
2022/03/22 18:44:15;;;;;;;16.33;15.23;;;;;;;15.15;100.00;102773.34;1859645;77;26218;-73
2022/03/22 18:46:46;;;;;;;16.83;15.47;;;;;;;14.99;100.00;102770.45;1859658;77;26308;-72
2022/03/22 18:49:16;;;;;;;16.27;15.07;;;;;;;14.87;100.00;102773.99;1859660;77;26229;-71
2022/03/22 18:51:48;;;;;;;16.03;14.97;;;;;;;14.88;100.00;102779.04;1859679;77;26675;-76
2022/03/22 18:54:20;;;;;;;15.47;14.37;;;;;;;14.72;100.00;102778.05;1859112;77;26260;-72
2022/03/22 18:56:50;;;;;;;16.73;15.27;;;;;;;14.84;100.00;102781.53;1859013;77;26663;-72
2022/03/22 18:59:21;;;;;;;15.70;14.50;;;;;;;14.69;100.00;102784.73;1859097;77;26212;-72
2022/03/22 19:01:51;;;;;;;15.57;14.27;;;;;;;14.57;100.00;102782.96;1859029;76;26236;-71
2022/03/22 19:04:22;;;;;;;16.37;14.97;;;;;;;14.29;100.00;102785.97;1859091;77;26692;-71
2022/03/22 19:06:52;;;;;;;16.37;14.97;;;;;;;14.16;100.00;102796.20;1859111;77;26220;-71
2022/03/22 19:09:23;;;;;;;16.10;14.70;;;;;;;13.93;100.00;102796.46;1859022;77;26206;-76
2022/03/22 19:11:53;;;;;;;16.10;14.90;;;;;;;13.83;100.00;102804.16;1859001;77;26312;-77
2022/03/22 19:14:23;;;;;;;16.47;15.27;;;;;;;13.71;100.00;102804.84;1859085;77;26373;-76
2022/03/22 19:22:55;;;;;;;16.27;14.97;;;;;;;13.25;100.00;102816.45;2014741;71;32943;-76
2022/03/22 19:28:40;;;;;;;16.07;14.83;;;;;;;12.88;100.00;102816.09;2007487;71;33005;-73
2022/03/22 19:34:25;;;;;;;16.13;15.00;;;;;;;12.52;100.00;102812.66;1997003;71;32887;-76
2022/03/22 19:40:11;;;;;;;15.37;14.27;;;;;;;12.38;100.00;102822.97;2011529;71;32778;-71
2022/03/22 19:45:55;;;;;;;15.47;14.37;;;;;;;12.23;100.00;102827.71;2015000;71;33330;-71
2022/03/22 19:51:40;;;;;;;19.63;17.87;;;;;;;12.41;100.00;102828.88;2004045;71;33360;-78
2022/03/22 19:57:25;;;;;;;19.13;17.63;;;;;;;12.14;100.00;102838.95;2009814;71;32828;-77
2022/03/22 20:03:09;;;;;;;17.97;16.57;;;;;;;12.21;100.00;102841.03;2018340;71;32856;-71
2022/03/22 20:08:53;;;;;;;18.03;16.73;;;;;;;12.02;100.00;102844.56;1991451;70;33269;-72
2022/03/22 20:14:38;;;;;;;18.33;17.03;;;;;;;11.73;100.00;102857.55;2004439;71;33068;-75
2022/03/22 20:20:22;;;;;;;19.20;17.63;;;;;;;11.83;100.00;102856.40;1991223;71;32865;-75
2022/03/22 20:26:09;;;;;;;19.47;17.90;;;;;;;11.69;100.00;102866.60;2000144;71;33388;-73
2022/03/22 20:31:53;;;;;;;20.60;18.97;;;;;;;11.53;100.00;102865.95;2009708;71;32774;-73
2022/03/22 20:37:38;;;;;;;21.80;20.10;;;;;;;11.29;100.00;102871.53;1991426;71;33339;-75
2022/03/22 20:43:25;;;;;;;23.63;21.70;;;;;;;11.27;100.00;102870.06;2014925;71;32841;-71
2022/03/22 20:49:10;;;;;;;22.33;20.73;;;;;;;11.23;100.00;102873.87;2014796;71;32876;-72
2022/03/22 20:54:54;;;;;;;21.70;20.23;;;;;;;11.25;100.00;102881.41;2005461;71;33031;-75
2022/03/22 21:00:39;;;;;;;24.67;22.60;;;;;;;11.36;100.00;102886.70;2006149;71;32821;-72
2022/03/22 21:06:24;;;;;;;25.03;23.33;;;;;;;11.12;100.00;102894.19;2016504;71;32855;-73
2022/03/22 21:12:10;;;;;;;27.10;24.93;;;;;;;11.03;100.00;102890.05;2013062;71;32904;-74
2022/03/22 21:17:55;;;;;;;29.30;27.20;;;;;;;10.89;100.00;102897.75;2016907;71;33307;-81
2022/03/22 21:23:40;;;;;;;29.43;27.23;;;;;;;11.06;100.00;102894.28;2009031;71;32865;-72
2022/03/22 21:29:26;;;;;;;29.37;27.23;;;;;;;10.79;100.00;102894.69;2003851;71;32814;-75
2022/03/22 21:35:11;;;;;;;31.57;29.30;;;;;;;10.62;100.00;102893.66;2000584;71;34117;-77
2022/03/22 21:40:56;;;;;;;34.13;31.57;;;;;;;10.55;100.00;102898.48;2013103;71;32820;-77
2022/03/22 21:46:41;;;;;;;33.47;30.93;;;;;;;10.49;100.00;102898.02;2005488;71;32808;-70
2022/03/22 21:52:25;;;;;;;32.73;30.30;;;;;;;10.26;100.00;102889.05;2000855;71;32734;-80
2022/03/22 21:58:10;;;;;;;34.03;31.53;;;;;;;10.45;100.00;102889.30;2013019;71;32897;-73
2022/03/22 22:03:54;;;;;;;33.53;30.83;;;;;;;9.92;100.00;102886.88;2014710;71;32799;-76
2022/03/22 22:09:42;;;;;;;37.83;34.23;;;;;;;9.95;100.00;102903.91;2000551;71;32747;-78
2022/03/22 22:15:19;;;;;;;37.30;34.50;;;;;;;9.71;100.00;102904.83;1970150;72;33283;-81
2022/03/22 22:17:51;;;;;;;36.53;33.63;;;;;;;9.56;100.00;102909.88;1922504;73;26241;-82
2022/03/22 22:20:22;;;;;;;40.30;37.20;;;;;;;9.64;100.00;102907.34;1880765;75;26215;-81
2022/03/22 22:22:54;;;;;;;42.90;39.90;;;;;;;9.61;100.00;102907.27;1934386;74;26360;-76
2022/03/22 22:25:24;;;;;;;44.20;40.80;;;;;;;9.53;100.00;102908.95;1941412;73;26758;-82
2022/03/22 22:27:56;;;;;;;45.90;42.60;;;;;;;9.54;100.00;102906.50;1940774;73;26285;-82
2022/03/22 22:30:26;;;;;;;45.20;41.87;;;;;;;9.55;100.00;102905.40;1915593;73;26218;-81
2022/03/22 22:35:44;;;;;;;53.43;49.63;;;;;;;9.48;100.00;102900.47;1913956;73;26379;-80
2022/03/22 22:38:15;;;;;;;56.60;52.60;;;;;;;9.44;100.00;102902.85;1914178;73;26661;-80
2022/03/22 22:40:46;;;;;;;59.13;55.03;;;;;;;9.44;100.00;102908.93;1886325;75;26215;-75
2022/03/22 22:43:17;;;;;;;60.67;56.43;;;;;;;9.35;100.00;102903.36;1941569;74;26702;-81
2022/03/22 22:45:47;;;;;;;60.17;56.27;;;;;;;9.32;100.00;102909.36;1896702;75;26289;-81
2022/03/22 22:48:18;;;;;;;66.37;61.77;;;;;;;9.27;100.00;102908.66;1920038;74;26335;-82
2022/03/22 22:50:49;;;;;;;65.40;60.60;;;;;;;9.27;100.00;102898.95;1908919;74;26300;-79
2022/03/22 22:53:20;;;;;;;69.93;65.33;;;;;;;9.44;100.00;102897.84;1941560;73;26227;-78
2022/03/22 22:55:50;;;;;;;75.97;70.77;;;;;;;9.16;100.00;102903.83;1927188;73;26213;-83
2022/03/22 22:58:20;;;;;;;80.80;75.40;;;;;;;9.02;100.00;102901.72;1884577;75;26240;-82
2022/03/22 23:00:54;;;;;;;80.37;74.97;;;;;;;9.03;100.00;102905.31;1934034;73;26347;-77
2022/03/22 23:03:26;;;;;;;82.20;76.67;;;;;;;9.05;100.00;102901.80;1930408;74;26271;-83
2022/03/22 23:05:58;;;;;;;79.57;74.47;;;;;;;9.04;100.00;102904.25;1904019;74;26704;-84
2022/03/22 23:11:19;;;;;;;80.90;75.23;;;;;;;9.08;100.00;102897.18;1886099;75;26232;-75
2022/03/22 23:17:04;;;;;;;84.87;79.00;;;;;;;8.93;100.00;102903.06;1998958;70;32928;-82
2022/03/22 23:22:49;;;;;;;86.43;80.70;;;;;;;8.93;100.00;102892.51;1991975;70;32908;-81
2022/03/22 23:28:33;;;;;;;92.17;85.87;;;;;;;8.80;100.00;102899.00;2000737;71;33312;-76
2022/03/22 23:34:17;;;;;;;91.00;84.40;;;;;;;8.84;100.00;102896.09;1998540;71;32827;-78
2022/03/22 23:40:02;;;;;;;91.90;85.63;;;;;;;8.71;100.00;102898.95;1998905;71;33045;-76
2022/03/22 23:45:46;;;;;;;93.87;86.97;;;;;;;8.71;100.00;102896.18;1996867;71;32864;-73
2022/03/22 23:51:31;;;;;;;95.50;88.60;;;;;;;8.61;100.00;102894.42;1998343;71;33016;-78
2022/03/22 23:57:17;;;;;;;98.07;90.83;;;;;;;8.45;100.00;102885.25;2009169;71;33056;-77
